Time,TemperatureF,DewpointF,PressureIn,WindDirection,WindDirectionDegrees,WindSpeedMPH,WindSpeedGustMPH,Humidity,HourlyPrecipIn,Conditions,Clouds,dailyrainin,SoftwareType,DateUTC
2013-01-14 00:04:00,14.4,13.5,28.89,NW,315,0.0,0.0,96,0.00,CLR,,0.00,WeatherDisplay:10.37,2013-01-14 06:04:00,
2013-01-14 00:09:00,14.4,13.0,28.89,North,360,0.0,0.0,94,0.00,CLR,,0.00,WeatherDisplay:10.37,2013-01-14 06:09:00,
2013-01-14 00:14:00,14.7,14.0,28.89,SW,225,0.0,0.0,97,0.00,CLR,,0.00,WeatherDisplay:10.37,2013-01-14 06:14:00,
2013-01-14 00:19:00,14.7,14.0,28.90,SW,225,0.0,0.0,97,0.00,CLR,,0.00,WeatherDisplay:10.37,2013-01-14 06:19:00,
2013-01-14 00:24:00,14.4,13.7,28.90,SSW,202,0.0,0.0,97,0.00,CLR,,0.00,WeatherDisplay:10.37,2013-01-14 06:24:00,
2013-01-14 00:29:00,14.4,13.9,28.91,South,180,0.0,0.0,98,0.00,CLR,,0.00,WeatherDisplay:10.37,2013-01-14 06:29:00,
2013-01-14 00:34:00,14.4,13.9,28.91,SSW,202,0.0,0.0,98,0.00,CLR,,0.00,WeatherDisplay:10.37,2013-01-14 06:34:00,
2013-01-14 00:39:00,14.0,13.3,28.91,SSW,202,0.0,0.0,97,0.00,CLR,,0.00,WeatherDisplay:10.37,2013-01-14 06:39:00,
2013-01-14 00:44:00,13.5,12.1,28.91,NW,315,0.0,0.0,94,0.00,CLR,,0.00,WeatherDisplay:10.37,2013-01-14 06:44:00,
2013-01-14 00:49:00,12.9,11.3,28.91,NW,315,0.0,0.0,93,0.00,CLR,,0.00,WeatherDisplay:10.37,2013-01-14 06:49:00,
2013-01-14 00:54:00,13.1,11.5,28.91,South,180,0.0,0.0,93,0.00,CLR,,0.00,WeatherDisplay:10.37,2013-01-14 06:54:00,
2013-01-14 00:59:00,13.3,11.7,28.91,South,180,0.0,0.0,93,0.00,CLR,,0.00,WeatherDisplay:10.37,2013-01-14 06:59:00,
2013-01-14 01:04:00,13.3,12.4,28.91,South,180,0.0,0.0,96,0.00,CLR,,0.00,WeatherDisplay:10.37,2013-01-14 07:04:00,
2013-01-14 01:09:00,13.1,11.7,28.91,South,180,0.0,0.0,94,0.00,CLR,,0.00,WeatherDisplay:10.37,2013-01-14 07:09:00,
2013-01-14 01:14:00,12.9,11.3,28.91,South,180,0.0,0.0,93,0.00,CLR,,0.00,WeatherDisplay:10.37,2013-01-14 07:14:00,
2013-01-14 01:19:00,12.7,10.8,28.91,South,180,0.0,0.0,92,0.00,CLR,,0.00,WeatherDisplay:10.37,2013-01-14 07:19:00,
2013-01-14 01:24:00,12.4,9.8,28.91,South,180,0.0,0.0,89,0.00,CLR,,0.00,WeatherDisplay:10.37,2013-01-14 07:24:00,
2013-01-14 01:29:00,12.7,11.8,28.91,NNE,22,0.0,0.0,96,0.00,CLR,,0.00,WeatherDisplay:10.37,2013-01-14 07:29:00,
2013-01-14 01:34:00,13.1,12.6,28.91,NNE,22,0.0,0.0,98,0.00,CLR,,0.00,WeatherDisplay:10.37,2013-01-14 07:34:00,
2013-01-14 01:39:00,12.7,12.2,28.91,NNE,22,0.0,0.0,98,0.00,CLR,,0.00,WeatherDisplay:10.37,2013-01-14 07:39:00,
2013-01-14 01:44:00,12.7,12.0,28.91,ESE,112,0.0,0.0,97,0.00,CLR,,0.00,WeatherDisplay:10.37,2013-01-14 07:44:00,
2013-01-14 01:49:00,12.7,11.5,28.91,SSW,202,0.0,0.0,95,0.00,CLR,,0.00,WeatherDisplay:10.37,2013-01-14 07:49:00,
2013-01-14 01:54:00,12.4,10.5,28.91,SSE,158,0.0,0.0,92,0.00,CLR,,0.00,WeatherDisplay:10.37,2013-01-14 07:54:00,
2013-01-14 01:59:00,12.0,9.6,28.91,South,180,0.0,0.0,90,0.00,CLR,,0.00,WeatherDisplay:10.37,2013-01-14 07:59:00,
2013-01-14 02:04:00,11.8,9.4,28.91,NNW,338,0.0,0.0,90,0.00,CLR,,0.00,WeatherDisplay:10.37,2013-01-14 08:04:00,
2013-01-14 02:09:00,11.8,9.9,28.91,NNW,338,0.0,0.0,92,0.00,CLR,,0.00,WeatherDisplay:10.37,2013-01-14 08:09:00,
2013-01-14 02:14:00,12.0,11.1,28.91,NNE,22,0.0,0.0,96,0.00,CLR,,0.00,WeatherDisplay:10.37,2013-01-14 08:14:00,
2013-01-14 02:19:00,12.0,11.1,28.91,SSE,158,0.0,0.0,96,0.00,CLR,,0.00,WeatherDisplay:10.37,2013-01-14 08:19:00,
2013-01-14 02:24:00,12.2,11.0,28.91,South,180,0.0,0.0,95,0.00,CLR,,0.00,WeatherDisplay:10.37,2013-01-14 08:24:00,
2013-01-14 02:29:00,12.2,10.8,28.92,NNW,338,0.0,0.0,94,0.00,CLR,,0.00,WeatherDisplay:10.37,2013-01-14 08:29:00,
2013-01-14 02:34:00,12.4,11.7,28.92,NNW,338,0.0,0.0,97,0.00,CLR,,0.00,WeatherDisplay:10.37,2013-01-14 08:34:00,
2013-01-14 02:39:00,13.3,13.1,28.92,NNE,22,0.0,0.0,99,0.00,CLR,,0.00,WeatherDisplay:10.37,2013-01-14 08:39:00,
2013-01-14 02:44:00,13.5,13.0,28.92,NNE,22,2.3,2.3,98,0.00,CLR,,0.00,WeatherDisplay:10.37,2013-01-14 08:44:00,
2013-01-14 02:49:00,13.6,13.1,28.92,NNE,22,2.7,2.7,98,0.00,CLR,,0.00,WeatherDisplay:10.37,2013-01-14 08:49:00,
2013-01-14 02:54:00,13.6,13.1,28.91,NE,45,3.5,3.5,98,0.00,CLR,,0.00,WeatherDisplay:10.37,2013-01-14 08:54:00,
2013-01-14 02:59:00,13.5,13.0,28.91,NNE,22,2.3,2.3,98,0.00,CLR,,0.00,WeatherDisplay:10.37,2013-01-14 08:59:00,
2013-01-14 03:04:00,13.1,12.4,28.91,North,360,2.3,2.3,97,0.00,CLR,,0.00,WeatherDisplay:10.37,2013-01-14 09:04:00,
2013-01-14 03:09:00,12.9,12.2,28.91,NNE,22,1.7,1.7,97,0.00,CLR,,0.00,WeatherDisplay:10.37,2013-01-14 09:09:00,
2013-01-14 03:14:00,12.7,12.0,28.91,NNW,338,1.1,1.6,97,0.00,CLR,,0.00,WeatherDisplay:10.37,2013-01-14 09:14:00,
2013-01-14 03:19:00,12.6,11.9,28.90,NNW,338,0.0,0.0,97,0.00,CLR,,0.00,WeatherDisplay:10.37,2013-01-14 09:19:00,
2013-01-14 03:24:00,12.6,11.9,28.90,NNE,22,1.1,1.1,97,0.00,CLR,,0.00,WeatherDisplay:10.37,2013-01-14 09:24:00,
2013-01-14 03:29:00,12.7,12.0,28.91,NNE,22,1.1,1.1,97,0.00,CLR,,0.00,WeatherDisplay:10.37,2013-01-14 09:29:00,
2013-01-14 03:34:00,13.1,12.4,28.91,NNE,22,2.7,2.7,97,0.00,CLR,,0.00,WeatherDisplay:10.37,2013-01-14 09:34:00,
2013-01-14 03:39:00,13.3,12.6,28.91,NNW,338,1.7,1.7,97,0.00,CLR,,0.00,WeatherDisplay:10.37,2013-01-14 09:39:00,
2013-01-14 03:44:00,12.9,12.2,28.91,North,360,0.0,0.0,97,0.00,CLR,,0.00,WeatherDisplay:10.37,2013-01-14 09:44:00,
2013-01-14 03:49:00,12.7,12.0,28.91,East,90,0.0,0.0,97,0.00,CLR,,0.00,WeatherDisplay:10.37,2013-01-14 09:49:00,
2013-01-14 03:54:00,12.4,11.5,28.90,NNE,22,1.1,1.1,96,0.00,CLR,,0.00,WeatherDisplay:10.37,2013-01-14 09:54:00,
2013-01-14 03:59:00,12.4,11.5,28.90,NNW,338,1.1,0.0,96,0.00,CLR,,0.00,WeatherDisplay:10.37,2013-01-14 09:59:00,
2013-01-14 04:04:00,12.4,11.7,28.89,North,360,0.0,0.0,97,0.00,CLR,,0.00,WeatherDisplay:10.37,2013-01-14 10:04:00,
2013-01-14 04:09:00,12.7,12.0,28.89,NNE,22,2.3,2.5,97,0.00,CLR,,0.00,WeatherDisplay:10.37,2013-01-14 10:09:00,
2013-01-14 04:15:00,13.1,12.4,28.89,NNE,22,2.3,2.3,97,0.00,CLR,,0.00,WeatherDisplay:10.37,2013-01-14 10:15:00,
2013-01-14 04:20:00,13.3,12.6,28.89,NNE,22,2.3,2.3,97,0.00,CLR,,0.00,WeatherDisplay:10.37,2013-01-14 10:20:00,
2013-01-14 04:25:00,13.3,12.6,28.89,North,11,2.0,3.0,97,0.00,CLR,,0.00,WeatherDisplay:10.37,2013-01-14 10:25:00,
2013-01-14 04:30:00,13.3,12.4,28.88,North,360,2.7,2.7,96,0.00,CLR,,0.00,WeatherDisplay:10.37,2013-01-14 10:30:00,
2013-01-14 04:35:00,13.3,12.4,28.88,NNE,22,3.5,3.5,96,0.00,CLR,,0.00,WeatherDisplay:10.37,2013-01-14 10:35:00,
2013-01-14 04:40:00,13.3,12.4,28.87,NNE,22,2.3,2.4,96,0.00,CLR,,0.00,WeatherDisplay:10.37,2013-01-14 10:40:00,
2013-01-14 04:45:00,13.3,12.4,28.87,North,360,2.7,2.7,96,0.00,CLR,,0.00,WeatherDisplay:10.37,2013-01-14 10:45:00,
2013-01-14 04:50:00,13.3,12.4,28.87,NNE,22,2.3,2.3,96,0.00,CLR,,0.00,WeatherDisplay:10.37,2013-01-14 10:50:00,
2013-01-14 04:55:00,13.3,12.4,28.87,North,360,1.7,1.7,96,0.00,CLR,,0.00,WeatherDisplay:10.37,2013-01-14 10:55:00,
2013-01-14 05:00:00,13.3,12.4,28.87,NNE,22,2.7,2.7,96,0.00,CLR,,0.00,WeatherDisplay:10.37,2013-01-14 11:00:00,
2013-01-14 05:05:00,13.6,12.7,28.87,NNE,22,2.7,2.7,96,0.00,CLR,,0.00,WeatherDisplay:10.37,2013-01-14 11:05:00,
2013-01-14 05:10:00,13.6,12.7,28.87,North,360,2.2,2.2,96,0.00,CLR,,0.00,WeatherDisplay:10.37,2013-01-14 11:10:00,
2013-01-14 05:15:00,13.8,12.9,28.87,NNE,22,2.3,2.3,96,0.00,CLR,,0.00,WeatherDisplay:10.37,2013-01-14 11:15:00,
2013-01-14 05:20:00,13.8,12.6,28.88,NNE,22,1.1,1.3,95,0.00,CLR,,0.00,WeatherDisplay:10.37,2013-01-14 11:20:00,
2013-01-14 05:26:00,13.8,12.6,28.88,NNE,22,0.0,0.0,95,0.00,CLR,,0.00,WeatherDisplay:10.37,2013-01-14 11:26:00,
2013-01-14 05:31:00,13.8,12.6,28.88,NNE,22,0.0,0.0,95,0.00,CLR,,0.00,WeatherDisplay:10.37,2013-01-14 11:31:00,
2013-01-14 05:36:00,13.8,12.6,28.88,NE,45,0.0,0.0,95,0.00,CLR,,0.00,WeatherDisplay:10.37,2013-01-14 11:36:00,
2013-01-14 05:41:00,13.6,12.4,28.89,South,180,0.0,0.0,95,0.00,CLR,,0.00,WeatherDisplay:10.37,2013-01-14 11:41:00,
2013-01-14 05:46:00,13.5,12.3,28.89,SSE,158,0.0,0.0,95,0.00,CLR,,0.00,WeatherDisplay:10.37,2013-01-14 11:46:00,
2013-01-14 05:51:00,13.6,12.7,28.89,NE,45,0.0,0.0,96,0.00,CLR,,0.00,WeatherDisplay:10.37,2013-01-14 11:51:00,
2013-01-14 05:56:00,13.8,12.9,28.89,North,360,0.0,0.0,96,0.00,CLR,,0.00,WeatherDisplay:10.37,2013-01-14 11:56:00,
2013-01-14 06:01:00,14.7,13.8,28.89,NE,45,2.7,2.7,96,0.00,CLR,,0.00,WeatherDisplay:10.37,2013-01-14 12:01:00,
2013-01-14 06:06:00,14.9,13.7,28.89,NNE,22,1.7,1.7,95,0.00,CLR,,0.00,WeatherDisplay:10.37,2013-01-14 12:06:00,
2013-01-14 06:11:00,14.5,13.3,28.89,NNE,22,0.0,0.0,95,0.00,CLR,,0.00,WeatherDisplay:10.37,2013-01-14 12:11:00,
2013-01-14 06:16:00,14.5,13.3,28.91,SSE,158,0.0,0.0,95,0.00,CLR,,0.00,WeatherDisplay:10.37,2013-01-14 12:16:00,
2013-01-14 06:21:00,14.2,13.0,28.91,NNE,22,0.0,0.0,95,0.00,CLR,,0.00,WeatherDisplay:10.37,2013-01-14 12:21:00,
2013-01-14 06:26:00,14.5,13.6,28.91,NNE,22,2.3,2.3,96,0.00,CLR,,0.00,WeatherDisplay:10.37,2013-01-14 12:26:00,
2013-01-14 06:31:00,14.7,13.8,28.89,North,360,1.1,1.3,96,0.00,CLR,,0.00,WeatherDisplay:10.37,2013-01-14 12:31:00,
2013-01-14 06:36:00,14.7,13.5,28.89,NNE,22,1.1,1.4,95,0.00,CLR,,0.00,WeatherDisplay:10.37,2013-01-14 12:36:00,
2013-01-14 06:41:00,14.7,13.5,28.89,NNE,22,1.7,2.0,95,0.00,CLR,,0.00,WeatherDisplay:10.37,2013-01-14 12:41:00,
2013-01-14 06:46:00,15.1,13.9,28.89,North,360,2.7,2.7,95,0.00,CLR,,0.00,WeatherDisplay:10.37,2013-01-14 12:46:00,
2013-01-14 06:51:00,15.4,14.2,28.89,NNE,22,2.7,2.7,95,0.00,CLR,,0.00,WeatherDisplay:10.37,2013-01-14 12:51:00,
2013-01-14 06:56:00,16.0,14.6,28.89,North,360,2.3,2.3,94,0.00,CLR,,0.00,WeatherDisplay:10.37,2013-01-14 12:56:00,
2013-01-14 07:01:00,16.2,14.8,28.89,NNE,22,2.3,2.3,94,0.00,CLR,,0.00,WeatherDisplay:10.37,2013-01-14 13:01:00,
2013-01-14 07:06:00,16.7,15.0,28.91,NE,45,3.5,3.5,93,0.00,CLR,,0.00,WeatherDisplay:10.37,2013-01-14 13:06:00,
2013-01-14 07:11:00,16.7,15.0,28.91,NNE,22,3.5,3.5,93,0.00,CLR,,0.00,WeatherDisplay:10.37,2013-01-14 13:11:00,
2013-01-14 07:16:00,16.9,15.2,28.91,NE,45,5.8,5.8,93,0.00,CLR,,0.00,WeatherDisplay:10.37,2013-01-14 13:16:00,
2013-01-14 07:21:00,16.7,15.0,28.91,NNE,22,2.3,2.5,93,0.00,CLR,,0.00,WeatherDisplay:10.37,2013-01-14 13:21:00,
2013-01-14 07:26:00,16.7,15.0,28.91,NE,45,4.6,4.6,93,0.00,CLR,,0.00,WeatherDisplay:10.37,2013-01-14 13:26:00,
2013-01-14 07:31:00,17.1,15.4,28.92,NNE,22,4.6,4.6,93,0.00,CLR,,0.00,WeatherDisplay:10.37,2013-01-14 13:31:00,
2013-01-14 07:36:00,17.1,15.4,28.92,NE,45,2.3,2.3,93,0.00,CLR,,0.00,WeatherDisplay:10.37,2013-01-14 13:36:00,
2013-01-14 07:42:00,17.1,15.4,28.92,NNE,22,2.3,2.3,93,0.00,CLR,,0.00,WeatherDisplay:10.37,2013-01-14 13:42:00,
2013-01-14 07:47:00,17.1,15.4,28.92,ESE,112,1.1,0.0,93,0.00,CLR,,0.00,WeatherDisplay:10.37,2013-01-14 13:47:00,
2013-01-14 07:52:00,17.2,15.8,28.94,SSW,202,0.0,0.0,94,0.00,CLR,,0.00,WeatherDisplay:10.37,2013-01-14 13:52:00,
2013-01-14 07:57:00,17.6,16.2,28.94,SSE,158,2.3,2.3,94,0.00,CLR,,0.00,WeatherDisplay:10.37,2013-01-14 13:57:00,
2013-01-14 08:02:00,17.6,15.9,28.94,West,270,1.1,1.1,93,0.00,CLR,,0.00,WeatherDisplay:10.37,2013-01-14 14:02:00,
2013-01-14 08:07:00,17.6,16.2,28.95,NW,315,1.1,0.0,94,0.00,CLR,,0.00,WeatherDisplay:10.37,2013-01-14 14:07:00,
2013-01-14 08:12:00,18.0,16.3,28.95,NE,45,2.3,2.3,93,0.00,CLR,,0.00,WeatherDisplay:10.37,2013-01-14 14:12:00,
2013-01-14 08:17:00,18.0,16.6,28.95,NW,315,1.1,1.1,94,0.00,CLR,,0.00,WeatherDisplay:10.37,2013-01-14 14:17:00,
2013-01-14 08:22:00,18.1,16.4,28.95,East,90,2.3,2.3,93,0.00,CLR,,0.00,WeatherDisplay:10.37,2013-01-14 14:22:00,
2013-01-14 08:27:00,18.9,17.0,28.94,NNW,338,4.6,4.6,92,0.00,CLR,,0.00,WeatherDisplay:10.37,2013-01-14 14:27:00,
2013-01-14 08:32:00,18.9,17.0,28.94,NNW,338,3.5,3.5,92,0.00,CLR,,0.00,WeatherDisplay:10.37,2013-01-14 14:32:00,
2013-01-14 08:37:00,19.2,17.5,28.94,NNW,338,2.3,2.3,93,0.00,CLR,,0.00,WeatherDisplay:10.37,2013-01-14 14:37:00,
2013-01-14 08:42:00,19.2,17.3,28.95,NW,315,1.7,1.7,92,0.00,CLR,,0.00,WeatherDisplay:10.37,2013-01-14 14:42:00,
2013-01-14 08:47:00,19.8,17.9,28.95,NNE,22,2.3,2.3,92,0.00,CLR,,0.00,WeatherDisplay:10.37,2013-01-14 14:47:00,
2013-01-14 08:52:00,20.1,18.4,28.96,NNE,22,2.3,2.3,93,0.00,CLR,,0.00,WeatherDisplay:10.37,2013-01-14 14:52:00,
2013-01-14 08:57:00,20.3,18.1,28.96,North,360,2.3,2.3,91,0.00,CLR,,0.00,WeatherDisplay:10.37,2013-01-14 14:57:00,
2013-01-14 09:02:00,20.7,18.0,28.96,NNE,22,3.5,3.5,89,0.00,CLR,,0.00,WeatherDisplay:10.37,2013-01-14 15:02:00,
2013-01-14 09:07:00,21.0,18.3,28.96,NNE,22,4.6,4.6,89,0.00,CLR,,0.00,WeatherDisplay:10.37,2013-01-14 15:07:00,
2013-01-14 09:12:00,21.4,18.7,28.96,North,360,2.3,2.3,89,0.00,CLR,,0.00,WeatherDisplay:10.37,2013-01-14 15:12:00,
2013-01-14 09:17:00,21.9,18.1,28.97,NNE,22,3.5,3.5,85,0.00,CLR,,0.00,WeatherDisplay:10.37,2013-01-14 15:17:00,
2013-01-14 09:22:00,22.5,18.4,28.97,North,360,3.5,3.5,84,0.00,CLR,,0.00,WeatherDisplay:10.37,2013-01-14 15:22:00,
2013-01-14 09:27:00,22.6,18.5,28.98,NNE,22,2.3,2.3,84,0.00,CLR,,0.00,WeatherDisplay:10.37,2013-01-14 15:27:00,
2013-01-14 09:32:00,22.3,17.4,28.98,NNW,338,4.6,4.6,81,0.00,CLR,,0.00,WeatherDisplay:10.37,2013-01-14 15:32:00,
2013-01-14 09:37:00,21.9,17.0,28.98,NNE,22,4.6,4.6,81,0.00,CLR,,0.00,WeatherDisplay:10.37,2013-01-14 15:37:00,
2013-01-14 09:42:00,21.9,16.7,28.99,NNW,338,3.2,3.2,80,0.00,CLR,,0.00,WeatherDisplay:10.37,2013-01-14 15:42:00,
2013-01-14 09:47:00,21.7,16.2,28.99,NNW,338,5.8,5.8,79,0.00,CLR,,0.00,WeatherDisplay:10.37,2013-01-14 15:47:00,
2013-01-14 09:52:00,21.9,16.7,29.00,NNE,22,3.5,3.5,80,0.00,CLR,,0.00,WeatherDisplay:10.37,2013-01-14 15:52:00,
2013-01-14 09:57:00,21.9,16.1,29.00,NNE,22,3.5,3.5,78,0.00,CLR,,0.00,WeatherDisplay:10.37,2013-01-14 15:57:00,
2013-01-14 10:02:00,21.9,16.4,29.00,North,360,5.8,5.8,79,0.00,CLR,,0.00,WeatherDisplay:10.37,2013-01-14 16:02:00,
2013-01-14 10:07:00,21.9,16.7,28.99,NNE,22,5.8,5.8,80,0.00,CLR,,0.00,WeatherDisplay:10.37,2013-01-14 16:07:00,
2013-01-14 10:12:00,21.7,15.9,28.99,NNW,338,5.8,5.8,78,0.00,CLR,,0.00,WeatherDisplay:10.37,2013-01-14 16:12:00,
2013-01-14 10:17:00,23.2,17.7,28.99,NE,45,3.7,3.7,79,0.00,CLR,,0.00,WeatherDisplay:10.37,2013-01-14 16:17:00,
2013-01-14 10:22:00,23.0,17.2,28.99,NNW,338,5.8,5.8,78,0.00,CLR,,0.00,WeatherDisplay:10.37,2013-01-14 16:22:00,
2013-01-14 10:27:00,22.8,16.4,28.98,NNW,338,4.6,4.6,76,0.00,CLR,,0.00,WeatherDisplay:10.37,2013-01-14 16:27:00,
2013-01-14 10:32:00,22.8,16.4,28.98,North,360,5.8,5.9,76,0.00,CLR,,0.00,WeatherDisplay:10.37,2013-01-14 16:32:00,
2013-01-14 10:37:00,22.5,15.8,28.98,North,360,6.3,6.3,75,0.00,CLR,,0.00,WeatherDisplay:10.37,2013-01-14 16:37:00,
2013-01-14 10:42:00,22.3,15.9,28.98,NNW,338,5.3,5.3,76,0.00,CLR,,0.00,WeatherDisplay:10.37,2013-01-14 16:42:00,
2013-01-14 10:47:00,22.1,15.1,28.98,North,360,6.9,6.9,74,0.00,CLR,,0.00,WeatherDisplay:10.37,2013-01-14 16:47:00,
2013-01-14 10:52:00,23.2,16.4,28.99,North,360,4.6,4.6,75,0.00,CLR,,0.00,WeatherDisplay:10.37,2013-01-14 16:52:00,
2013-01-14 10:57:00,24.3,17.2,28.99,NNE,22,5.3,5.3,74,0.00,CLR,,0.00,WeatherDisplay:10.37,2013-01-14 16:57:00,
2013-01-14 11:02:00,24.6,17.5,28.99,NW,315,5.8,5.8,74,0.00,CLR,,0.00,WeatherDisplay:10.37,2013-01-14 17:02:00,
2013-01-14 11:07:00,25.3,17.2,28.98,NE,45,4.6,4.6,71,0.00,CLR,,0.00,WeatherDisplay:10.37,2013-01-14 17:07:00,
2013-01-14 11:12:00,25.5,17.4,28.98,NNW,338,3.5,3.5,71,0.00,CLR,,0.00,WeatherDisplay:10.37,2013-01-14 17:12:00,
2013-01-14 11:17:00,26.1,18.0,28.98,North,360,6.9,6.9,71,0.00,CLR,,0.00,WeatherDisplay:10.37,2013-01-14 17:17:00,
2013-01-14 11:22:00,25.9,17.5,28.98,NNE,22,5.8,5.8,70,0.00,CLR,,0.00,WeatherDisplay:10.37,2013-01-14 17:22:00,
2013-01-14 11:27:00,25.7,16.9,28.97,NNE,22,9.2,9.2,69,0.00,CLR,,0.00,WeatherDisplay:10.37,2013-01-14 17:27:00,
2013-01-14 11:32:00,26.2,17.4,28.97,NNE,22,8.1,8.1,69,0.00,CLR,,0.00,WeatherDisplay:10.37,2013-01-14 17:32:00,
2013-01-14 11:37:00,26.2,17.4,28.97,NNE,22,7.3,7.3,69,0.00,CLR,,0.00,WeatherDisplay:10.37,2013-01-14 17:37:00,
2013-01-14 11:42:00,26.1,17.0,29.13,NNE,22,9.9,9.9,68,0.00,CLR,,0.00,WeatherDisplay:10.37,2013-01-14 17:42:00,
2013-01-14 11:47:00,26.6,17.5,28.96,North,360,8.1,8.1,68,0.00,CLR,,0.00,WeatherDisplay:10.37,2013-01-14 17:47:00,
2013-01-14 11:52:00,26.6,17.5,28.95,NNE,22,6.9,6.9,68,0.00,CLR,,0.00,WeatherDisplay:10.37,2013-01-14 17:52:00,
2013-01-14 11:57:00,26.6,17.5,28.95,NNE,22,4.7,4.7,68,0.00,CLR,,0.00,WeatherDisplay:10.37,2013-01-14 17:57:00,
2013-01-14 12:02:00,27.1,17.2,28.95,NNE,22,8.3,8.3,66,0.00,CLR,,0.00,WeatherDisplay:10.37,2013-01-14 18:02:00,
2013-01-14 12:07:00,27.1,17.2,28.94,NNW,338,5.8,5.8,66,0.00,CLR,,0.00,WeatherDisplay:10.37,2013-01-14 18:07:00,
2013-01-14 12:12:00,27.7,17.1,28.94,NNE,22,6.9,6.9,64,0.00,CLR,,0.00,WeatherDisplay:10.37,2013-01-14 18:12:00,
2013-01-14 12:17:00,27.7,17.1,28.94,NNE,22,6.9,7.1,64,0.00,CLR,,0.00,WeatherDisplay:10.37,2013-01-14 18:17:00,
2013-01-14 12:22:00,28.0,17.4,28.94,North,360,9.2,9.2,64,0.00,CLR,,0.00,WeatherDisplay:10.37,2013-01-14 18:22:00,
2013-01-14 12:27:00,28.4,18.1,28.93,NNE,22,4.7,4.7,65,0.00,CLR,,0.00,WeatherDisplay:10.37,2013-01-14 18:27:00,
2013-01-14 12:32:00,28.8,17.8,28.93,NNW,338,5.8,5.8,63,0.00,CLR,,0.00,WeatherDisplay:10.37,2013-01-14 18:32:00,
2013-01-14 12:37:00,28.4,17.0,28.93,NNW,338,5.8,5.8,62,0.00,CLR,,0.00,WeatherDisplay:10.37,2013-01-14 18:37:00,
2013-01-14 12:42:00,29.3,18.3,28.91,NNW,338,6.3,6.3,63,0.00,CLR,,0.00,WeatherDisplay:10.37,2013-01-14 18:42:00,
2013-01-14 12:47:00,29.3,17.9,28.91,NNE,22,5.8,5.8,62,0.00,CLR,,0.00,WeatherDisplay:10.37,2013-01-14 18:47:00,
2013-01-14 12:52:00,30.2,18.4,28.90,North,360,4.6,4.6,61,0.00,CLR,,0.00,WeatherDisplay:10.37,2013-01-14 18:52:00,
2013-01-14 12:57:00,30.0,17.8,28.90,NNE,22,4.6,4.6,60,0.00,CLR,,0.00,WeatherDisplay:10.37,2013-01-14 18:57:00,
2013-01-14 13:02:00,30.4,18.2,28.90,NNE,22,6.3,6.3,60,0.00,CLR,,0.00,WeatherDisplay:10.37,2013-01-14 19:02:00,
2013-01-14 13:07:00,30.7,18.8,28.89,North,360,4.6,4.6,61,0.00,CLR,,0.00,WeatherDisplay:10.37,2013-01-14 19:07:00,
2013-01-14 13:12:00,31.1,18.8,28.89,NNW,338,3.5,3.5,60,0.00,CLR,,0.00,WeatherDisplay:10.37,2013-01-14 19:12:00,
2013-01-14 13:17:00,30.7,18.1,28.88,North,360,5.8,5.8,59,0.00,CLR,,0.00,WeatherDisplay:10.37,2013-01-14 19:17:00,
2013-01-14 13:22:00,31.1,18.8,28.88,NNE,22,5.8,5.8,60,0.00,CLR,,0.00,WeatherDisplay:10.37,2013-01-14 19:22:00,
2013-01-14 13:28:00,31.3,18.2,28.88,North,360,4.6,4.6,58,0.00,CLR,,0.00,WeatherDisplay:10.37,2013-01-14 19:28:00,
2013-01-14 13:33:00,31.5,18.4,28.88,NNE,22,5.8,5.8,58,0.00,CLR,,0.00,WeatherDisplay:10.37,2013-01-14 19:33:00,
2013-01-14 13:38:00,32.2,19.5,28.88,North,360,4.7,4.7,59,0.00,CLR,,0.00,WeatherDisplay:10.37,2013-01-14 19:38:00,
2013-01-14 13:43:00,31.8,17.5,28.88,SSW,202,2.3,2.4,55,0.00,CLR,,0.00,WeatherDisplay:10.37,2013-01-14 19:43:00,
2013-01-14 13:48:00,32.4,18.4,28.88,North,360,6.9,6.9,56,0.00,CLR,,0.00,WeatherDisplay:10.37,2013-01-14 19:48:00,
2013-01-14 13:53:00,32.2,18.2,28.87,North,360,5.8,5.8,56,0.00,CLR,,0.00,WeatherDisplay:10.37,2013-01-14 19:53:00,
2013-01-14 13:58:00,32.2,18.2,28.87,North,360,5.8,5.8,56,0.00,CLR,,0.00,WeatherDisplay:10.37,2013-01-14 19:58:00,
2013-01-14 14:03:00,32.2,17.4,28.87,NNE,22,4.6,4.6,54,0.00,CLR,,0.00,WeatherDisplay:10.37,2013-01-14 20:03:00,
2013-01-14 14:08:00,33.1,18.2,28.86,NNE,22,5.8,5.8,54,0.00,CLR,,0.00,WeatherDisplay:10.37,2013-01-14 20:08:00,
2013-01-14 14:13:00,32.7,17.4,28.86,NNE,22,4.6,4.6,53,0.00,CLR,,0.00,WeatherDisplay:10.37,2013-01-14 20:13:00,
2013-01-14 14:18:00,33.4,17.6,28.86,WSW,248,4.2,4.2,52,0.00,CLR,,0.00,WeatherDisplay:10.37,2013-01-14 20:18:00,
2013-01-14 14:23:00,33.6,17.8,28.86,ESE,112,3.5,3.5,52,0.00,CLR,,0.00,WeatherDisplay:10.37,2013-01-14 20:23:00,
2013-01-14 14:28:00,33.6,17.4,28.86,WNW,292,3.7,3.7,51,0.00,CLR,,0.00,WeatherDisplay:10.37,2013-01-14 20:28:00,
2013-01-14 14:33:00,33.3,18.0,28.86,NNW,338,4.6,4.6,53,0.00,CLR,,0.00,WeatherDisplay:10.37,2013-01-14 20:33:00,
2013-01-14 14:38:00,34.2,18.4,28.86,North,360,3.5,3.5,52,0.00,CLR,,0.00,WeatherDisplay:10.37,2013-01-14 20:38:00,
2013-01-14 14:43:00,33.6,17.8,28.86,WNW,292,4.6,4.6,52,0.00,CLR,,0.00,WeatherDisplay:10.37,2013-01-14 20:43:00,
2013-01-14 14:48:00,33.4,17.6,28.86,NNE,22,5.8,5.8,52,0.00,CLR,,0.00,WeatherDisplay:10.37,2013-01-14 20:48:00,
2013-01-14 14:53:00,34.2,17.9,28.87,NNW,338,4.6,4.6,51,0.00,CLR,,0.00,WeatherDisplay:10.37,2013-01-14 20:53:00,
2013-01-14 14:58:00,33.3,16.6,28.87,North,360,3.5,3.5,50,0.00,CLR,,0.00,WeatherDisplay:10.37,2013-01-14 20:58:00,
2013-01-14 15:03:00,33.6,17.8,28.87,East,90,3.5,3.5,52,0.00,CLR,,0.00,WeatherDisplay:10.37,2013-01-14 21:03:00,
2013-01-14 15:08:00,34.3,17.6,28.87,NNE,22,3.5,3.5,50,0.00,CLR,,0.00,WeatherDisplay:10.37,2013-01-14 21:08:00,
2013-01-14 15:13:00,33.8,18.0,28.87,NW,315,4.6,4.6,52,0.00,CLR,,0.00,WeatherDisplay:10.37,2013-01-14 21:13:00,
2013-01-14 15:18:00,32.9,17.6,28.87,North,360,4.6,4.6,53,0.00,CLR,,0.00,WeatherDisplay:10.37,2013-01-14 21:18:00,
2013-01-14 15:23:00,32.4,16.7,28.87,NNW,338,3.5,3.5,52,0.00,CLR,,0.00,WeatherDisplay:10.37,2013-01-14 21:23:00,
2013-01-14 15:28:00,33.6,17.4,28.87,NNW,338,5.3,5.3,51,0.00,CLR,,0.00,WeatherDisplay:10.37,2013-01-14 21:28:00,
2013-01-14 15:33:00,33.1,16.9,28.87,NNE,22,5.8,5.8,51,0.00,CLR,,0.00,WeatherDisplay:10.37,2013-01-14 21:33:00,
2013-01-14 15:38:00,32.7,16.5,28.87,NW,315,5.8,5.8,51,0.00,CLR,,0.00,WeatherDisplay:10.37,2013-01-14 21:38:00,
2013-01-14 15:43:00,32.5,15.4,28.86,NNE,22,5.8,5.8,49,0.00,CLR,,0.00,WeatherDisplay:10.37,2013-01-14 21:43:00,
2013-01-14 15:48:00,32.4,15.3,28.86,North,360,6.8,6.8,49,0.00,CLR,,0.00,WeatherDisplay:10.37,2013-01-14 21:48:00,
2013-01-14 15:53:00,32.0,15.0,28.86,NNE,22,6.9,6.9,49,0.00,CLR,,0.00,WeatherDisplay:10.37,2013-01-14 21:53:00,
2013-01-14 15:58:00,32.0,15.0,28.86,NNW,338,5.8,5.8,49,0.00,CLR,,0.00,WeatherDisplay:10.37,2013-01-14 21:58:00,
2013-01-14 16:03:00,31.8,14.8,28.86,NNE,22,5.8,5.8,49,0.00,CLR,,0.00,WeatherDisplay:10.37,2013-01-14 22:03:00,
2013-01-14 16:08:00,31.8,14.8,28.87,NNE,22,4.6,4.6,49,0.00,CLR,,0.00,WeatherDisplay:10.37,2013-01-14 22:08:00,
2013-01-14 16:13:00,31.6,15.1,28.87,North,360,5.8,5.8,50,0.00,CLR,,0.00,WeatherDisplay:10.37,2013-01-14 22:13:00,
2013-01-14 16:18:00,31.5,15.0,28.87,NNE,22,6.3,6.3,50,0.00,CLR,,0.00,WeatherDisplay:10.37,2013-01-14 22:18:00,
2013-01-14 16:23:00,31.3,14.3,28.87,North,360,5.8,5.8,49,0.00,CLR,,0.00,WeatherDisplay:10.37,2013-01-14 22:23:00,
2013-01-14 16:28:00,31.1,14.6,28.87,North,360,4.7,4.7,50,0.00,CLR,,0.00,WeatherDisplay:10.37,2013-01-14 22:28:00,
2013-01-14 16:33:00,30.9,14.9,28.87,NNE,22,3.5,3.5,51,0.00,CLR,,0.00,WeatherDisplay:10.37,2013-01-14 22:33:00,
2013-01-14 16:38:00,30.9,14.4,28.87,NNE,22,4.6,4.6,50,0.00,CLR,,0.00,WeatherDisplay:10.37,2013-01-14 22:38:00,
2013-01-14 16:43:00,30.6,15.0,28.87,NW,315,5.8,5.8,52,0.00,CLR,,0.00,WeatherDisplay:10.37,2013-01-14 22:43:00,
2013-01-14 16:48:00,30.6,14.6,28.87,NNW,338,4.6,4.6,51,0.00,CLR,,0.00,WeatherDisplay:10.37,2013-01-14 22:48:00,
2013-01-14 16:53:00,30.4,14.4,28.87,ENE,68,3.5,3.5,51,0.00,CLR,,0.00,WeatherDisplay:10.37,2013-01-14 22:53:00,
2013-01-14 16:58:00,30.2,14.7,28.87,NE,45,2.7,2.7,52,0.00,CLR,,0.00,WeatherDisplay:10.37,2013-01-14 22:58:00,
2013-01-14 17:03:00,30.0,14.0,28.86,NNE,22,2.3,2.3,51,0.00,CLR,,0.00,WeatherDisplay:10.37,2013-01-14 23:03:00,
2013-01-14 17:08:00,29.5,14.0,28.86,North,360,2.3,2.4,52,0.00,CLR,,0.00,WeatherDisplay:10.37,2013-01-14 23:08:00,
2013-01-14 17:13:00,29.3,13.8,28.86,NW,315,2.3,2.3,52,0.00,CLR,,0.00,WeatherDisplay:10.37,2013-01-14 23:13:00,
2013-01-14 17:18:00,29.1,14.1,28.87,NNE,22,2.3,2.3,53,0.00,CLR,,0.00,WeatherDisplay:10.37,2013-01-14 23:18:00,
2013-01-14 17:23:00,28.8,14.2,28.87,North,360,3.5,3.5,54,0.00,CLR,,0.00,WeatherDisplay:10.37,2013-01-14 23:23:00,
2013-01-14 17:28:00,28.6,14.0,28.86,NW,315,2.3,2.3,54,0.00,CLR,,0.00,WeatherDisplay:10.37,2013-01-14 23:28:00,
2013-01-14 17:33:00,28.2,14.9,28.86,NNW,338,1.1,1.3,57,0.00,CLR,,0.00,WeatherDisplay:10.37,2013-01-14 23:33:00,
2013-01-14 17:38:00,27.7,14.4,28.86,NNW,338,2.7,2.7,57,0.00,CLR,,0.00,WeatherDisplay:10.37,2013-01-14 23:38:00,
2013-01-14 17:43:00,27.5,14.2,28.86,WNW,292,2.3,2.3,57,0.00,CLR,,0.00,WeatherDisplay:10.37,2013-01-14 23:43:00,
2013-01-14 17:48:00,27.1,14.7,28.86,North,360,1.1,1.1,59,0.00,CLR,,0.00,WeatherDisplay:10.37,2013-01-14 23:48:00,
2013-01-14 17:53:00,26.8,14.8,28.86,NNW,338,1.1,1.4,60,0.00,CLR,,0.00,WeatherDisplay:10.37,2013-01-14 23:53:00,
2013-01-14 17:58:00,26.6,14.6,28.86,North,360,2.3,2.3,60,0.00,CLR,,0.00,WeatherDisplay:10.37,2013-01-14 23:58:00,
2013-01-14 18:03:00,26.6,14.6,28.86,North,360,1.1,1.1,60,0.00,CLR,,0.00,WeatherDisplay:10.37,2013-01-15 00:03:00,
2013-01-14 18:08:00,26.4,14.4,28.86,NW,315,0.0,0.0,60,0.00,CLR,,0.00,WeatherDisplay:10.37,2013-01-15 00:08:00,
2013-01-14 18:13:00,26.2,14.6,28.86,NNW,338,0.0,0.0,61,0.00,CLR,,0.00,WeatherDisplay:10.37,2013-01-15 00:13:00,
2013-01-14 18:18:00,26.1,14.5,28.86,NW,315,1.1,1.1,61,0.00,CLR,,0.00,WeatherDisplay:10.37,2013-01-15 00:18:00,
2013-01-14 18:23:00,25.9,14.7,28.86,NNE,22,1.7,1.7,62,0.00,CLR,,0.00,WeatherDisplay:10.37,2013-01-15 00:23:00,
2013-01-14 18:28:00,25.9,14.7,28.87,NNE,22,1.7,1.7,62,0.00,CLR,,0.00,WeatherDisplay:10.37,2013-01-15 00:28:00,
2013-01-14 18:33:00,25.7,15.2,28.87,North,360,1.1,1.4,64,0.00,CLR,,0.00,WeatherDisplay:10.37,2013-01-15 00:33:00,
2013-01-14 18:38:00,25.7,16.3,28.87,North,360,1.7,1.7,67,0.00,CLR,,0.00,WeatherDisplay:10.37,2013-01-15 00:38:00,
2013-01-14 18:43:00,25.5,17.1,28.87,North,360,2.3,2.3,70,0.00,CLR,,0.00,WeatherDisplay:10.37,2013-01-15 00:43:00,
2013-01-14 18:48:00,25.3,17.2,28.87,WNW,292,1.7,1.8,71,0.00,CLR,,0.00,WeatherDisplay:10.37,2013-01-15 00:48:00,
2013-01-14 18:53:00,25.2,17.1,28.87,North,360,1.1,1.5,71,0.00,CLR,,0.00,WeatherDisplay:10.37,2013-01-15 00:53:00,
2013-01-14 18:58:00,25.2,17.4,28.87,NNE,22,1.7,1.7,72,0.00,CLR,,0.00,WeatherDisplay:10.37,2013-01-15 00:58:00,
2013-01-14 19:03:00,25.2,17.4,28.88,NW,315,1.1,0.0,72,0.00,CLR,,0.00,WeatherDisplay:10.37,2013-01-15 01:03:00,
2013-01-14 19:08:00,24.8,17.4,28.88,North,360,1.1,1.4,73,0.00,CLR,,0.00,WeatherDisplay:10.37,2013-01-15 01:08:00,
2013-01-14 19:13:00,24.6,17.5,28.88,North,360,1.7,1.7,74,0.00,CLR,,0.00,WeatherDisplay:10.37,2013-01-15 01:13:00,
2013-01-14 19:18:00,24.4,17.3,28.87,NNE,22,1.7,1.7,74,0.00,CLR,,0.00,WeatherDisplay:10.37,2013-01-15 01:18:00,
2013-01-14 19:23:00,24.4,17.6,28.87,North,360,1.7,1.8,75,0.00,CLR,,0.00,WeatherDisplay:10.37,2013-01-15 01:23:00,
2013-01-14 19:28:00,24.4,17.6,28.87,NNW,338,2.3,2.3,75,0.00,CLR,,0.00,WeatherDisplay:10.37,2013-01-15 01:28:00,
2013-01-14 19:33:00,24.3,17.5,28.87,NNE,22,2.3,2.3,75,0.00,CLR,,0.00,WeatherDisplay:10.37,2013-01-15 01:33:00,
2013-01-14 19:38:00,24.3,17.8,28.87,NNE,22,2.3,2.3,76,0.00,CLR,,0.00,WeatherDisplay:10.37,2013-01-15 01:38:00,
2013-01-14 19:43:00,24.1,17.6,28.87,NNE,22,2.3,2.3,76,0.00,CLR,,0.00,WeatherDisplay:10.37,2013-01-15 01:43:00,
2013-01-14 19:48:00,24.1,17.6,28.87,NNE,22,2.3,2.3,76,0.00,CLR,,0.00,WeatherDisplay:10.37,2013-01-15 01:48:00,
2013-01-14 19:53:00,23.9,17.7,28.87,NNE,22,2.3,2.3,77,0.00,CLR,,0.00,WeatherDisplay:10.37,2013-01-15 01:53:00,
2013-01-14 19:58:00,23.7,17.5,28.87,NNE,22,2.3,2.3,77,0.00,CLR,,0.00,WeatherDisplay:10.37,2013-01-15 01:58:00,
2013-01-14 20:03:00,23.7,17.8,28.87,NNE,22,2.3,2.3,78,0.00,CLR,,0.00,WeatherDisplay:10.37,2013-01-15 02:03:00,
2013-01-14 20:08:00,23.5,17.9,28.87,NNE,22,2.7,2.7,79,0.00,CLR,,0.00,WeatherDisplay:10.37,2013-01-15 02:08:00,
2013-01-14 20:13:00,23.5,17.9,28.87,NNE,22,2.7,2.7,79,0.00,CLR,,0.00,WeatherDisplay:10.37,2013-01-15 02:13:00,
2013-01-14 20:18:00,23.4,17.8,28.87,NNE,22,2.3,2.3,79,0.00,CLR,,0.00,WeatherDisplay:10.37,2013-01-15 02:18:00,
2013-01-14 20:23:00,23.2,17.7,28.87,North,360,2.3,2.3,79,0.00,CLR,,0.00,WeatherDisplay:10.37,2013-01-15 02:23:00,
2013-01-14 20:28:00,23.2,17.7,28.86,NNE,22,1.7,2.0,79,0.00,CLR,,0.00,WeatherDisplay:10.37,2013-01-15 02:28:00,
2013-01-14 20:33:00,23.0,17.5,28.86,NNE,22,1.1,1.6,79,0.00,CLR,,0.00,WeatherDisplay:10.37,2013-01-15 02:33:00,
2013-01-14 20:38:00,22.6,17.6,28.86,NNE,22,1.7,1.7,81,0.00,CLR,,0.00,WeatherDisplay:10.37,2013-01-15 02:38:00,
2013-01-14 20:43:00,22.6,17.6,28.87,NNE,22,2.3,2.3,81,0.00,CLR,,0.00,WeatherDisplay:10.37,2013-01-15 02:43:00,
2013-01-14 20:48:00,22.3,17.6,28.87,NNE,22,1.1,1.4,82,0.00,CLR,,0.00,WeatherDisplay:10.37,2013-01-15 02:48:00,
2013-01-14 20:53:00,22.1,17.4,28.87,North,360,1.1,1.6,82,0.00,CLR,,0.00,WeatherDisplay:10.37,2013-01-15 02:53:00,
2013-01-14 20:58:00,22.1,17.4,28.87,North,360,0.0,0.0,82,0.00,CLR,,0.00,WeatherDisplay:10.37,2013-01-15 02:58:00,
2013-01-14 21:03:00,22.1,17.4,28.87,NNW,338,1.1,0.0,82,0.00,CLR,,0.00,WeatherDisplay:10.37,2013-01-15 03:03:00,
2013-01-14 21:08:00,21.9,17.2,28.87,North,360,0.0,0.0,82,0.00,CLR,,0.00,WeatherDisplay:10.37,2013-01-15 03:08:00,
2013-01-14 21:13:00,21.6,17.2,28.87,NNE,22,1.1,1.1,83,0.00,CLR,,0.00,WeatherDisplay:10.37,2013-01-15 03:13:00,
2013-01-14 21:18:00,21.4,17.0,28.87,NNE,22,1.1,1.1,83,0.00,CLR,,0.00,WeatherDisplay:10.37,2013-01-15 03:18:00,
2013-01-14 21:23:00,21.2,17.1,28.87,NNW,338,1.1,0.0,84,0.00,CLR,,0.00,WeatherDisplay:10.37,2013-01-15 03:23:00,
2013-01-14 21:28:00,21.0,17.2,28.87,North,360,2.3,2.3,85,0.00,CLR,,0.00,WeatherDisplay:10.37,2013-01-15 03:28:00,
2013-01-14 21:33:00,21.4,17.6,28.87,NNE,22,2.7,2.7,85,0.00,CLR,,0.00,WeatherDisplay:10.37,2013-01-15 03:33:00,
2013-01-14 21:38:00,21.4,17.6,28.87,NNW,338,3.5,3.5,85,0.00,CLR,,0.00,WeatherDisplay:10.37,2013-01-15 03:38:00,
2013-01-14 21:43:00,21.6,17.8,28.87,NNW,338,1.7,1.7,85,0.00,CLR,,0.00,WeatherDisplay:10.37,2013-01-15 03:43:00,
2013-01-14 21:48:00,21.6,17.5,28.87,North,360,1.7,1.7,84,0.00,CLR,,0.00,WeatherDisplay:10.37,2013-01-15 03:48:00,
2013-01-14 21:54:00,21.2,17.4,28.86,North,360,2.3,2.3,85,0.00,CLR,,0.00,WeatherDisplay:10.37,2013-01-15 03:54:00,
2013-01-14 21:59:00,21.2,17.4,28.86,NNE,22,2.3,2.3,85,0.00,CLR,,0.00,WeatherDisplay:10.37,2013-01-15 03:59:00,
2013-01-14 22:04:00,21.2,17.4,28.86,NNE,22,2.3,2.6,85,0.00,CLR,,0.00,WeatherDisplay:10.37,2013-01-15 04:04:00,
2013-01-14 22:09:00,21.0,17.2,28.86,NNW,338,2.3,2.3,85,0.00,CLR,,0.00,WeatherDisplay:10.37,2013-01-15 04:09:00,
2013-01-14 22:14:00,21.0,17.2,28.86,West,270,2.3,2.3,85,0.00,CLR,,0.00,WeatherDisplay:10.37,2013-01-15 04:14:00,
2013-01-14 22:19:00,21.0,17.2,28.86,North,360,2.2,2.2,85,0.00,CLR,,0.00,WeatherDisplay:10.37,2013-01-15 04:19:00,
2013-01-14 22:24:00,21.0,17.2,28.86,NW,315,2.3,2.3,85,0.00,CLR,,0.00,WeatherDisplay:10.37,2013-01-15 04:24:00,
2013-01-14 22:29:00,20.8,17.0,28.87,NNE,22,2.7,2.7,85,0.00,CLR,,0.00,WeatherDisplay:10.37,2013-01-15 04:29:00,
2013-01-14 22:34:00,20.8,17.0,28.87,NW,315,1.1,1.3,85,0.00,CLR,,0.00,WeatherDisplay:10.37,2013-01-15 04:34:00,
2013-01-14 22:39:00,20.7,16.9,28.87,NNW,338,2.3,2.3,85,0.00,CLR,,0.00,WeatherDisplay:10.37,2013-01-15 04:39:00,
2013-01-14 22:44:00,20.5,16.7,28.87,North,360,2.3,2.3,85,0.00,CLR,,0.00,WeatherDisplay:10.37,2013-01-15 04:44:00,
2013-01-14 22:49:00,20.7,16.9,28.87,NNE,22,2.3,2.3,85,0.00,CLR,,0.00,WeatherDisplay:10.37,2013-01-15 04:49:00,
2013-01-14 22:54:00,20.7,16.9,28.86,North,360,2.3,2.3,85,0.00,CLR,,0.00,WeatherDisplay:10.37,2013-01-15 04:54:00,
2013-01-14 22:59:00,20.7,16.9,28.86,NNE,22,2.7,2.7,85,0.00,CLR,,0.00,WeatherDisplay:10.37,2013-01-15 04:59:00,
2013-01-14 23:00:00,20.5,16.7,28.86,North,360,2.3,2.3,85,0.00,CLR,,0.00,WeatherDisplay:10.37,2013-01-15 05:00:00,
2013-01-14 23:01:00,20.5,16.7,28.86,North,360,2.3,2.3,85,0.00,CLR,,0.00,WeatherDisplay:10.37,2013-01-15 05:01:00,
2013-01-14 23:03:00,20.5,16.7,28.86,NNE,22,2.3,2.3,85,0.00,CLR,,0.00,WeatherDisplay:10.37,2013-01-15 05:03:00,
2013-01-14 23:04:00,20.5,16.7,28.86,North,360,1.7,1.7,85,0.00,CLR,,0.00,WeatherDisplay:10.37,2013-01-15 05:04:00,
2013-01-14 23:09:00,20.5,16.7,28.86,NNE,22,2.3,2.3,85,0.00,CLR,,0.00,WeatherDisplay:10.37,2013-01-15 05:09:00,
2013-01-14 23:14:00,20.1,16.6,28.86,North,360,1.7,1.8,86,0.00,CLR,,0.00,WeatherDisplay:10.37,2013-01-15 05:14:00,
2013-01-14 23:19:00,20.1,16.6,28.86,NW,315,1.7,2.0,86,0.00,CLR,,0.00,WeatherDisplay:10.37,2013-01-15 05:19:00,
2013-01-14 23:24:00,19.9,16.4,28.86,North,360,1.7,1.8,86,0.00,CLR,,0.00,WeatherDisplay:10.37,2013-01-15 05:24:00,
2013-01-14 23:29:00,19.9,16.4,28.86,North,360,1.7,1.7,86,0.00,CLR,,0.00,WeatherDisplay:10.37,2013-01-15 05:29:00,
2013-01-14 23:34:00,19.8,16.3,28.86,NNW,338,1.7,1.7,86,0.00,CLR,,0.00,WeatherDisplay:10.37,2013-01-15 05:34:00,
2013-01-14 23:39:00,19.8,16.6,28.86,NNE,22,2.3,2.3,87,0.00,CLR,,0.00,WeatherDisplay:10.37,2013-01-15 05:39:00,
2013-01-14 23:44:00,19.8,16.6,28.86,NNW,338,2.3,2.3,87,0.00,CLR,,0.00,WeatherDisplay:10.37,2013-01-15 05:44:00,
2013-01-14 23:49:00,19.8,16.6,28.86,NNE,22,3.5,3.5,87,0.00,CLR,,0.00,WeatherDisplay:10.37,2013-01-15 05:49:00,
2013-01-14 23:54:00,19.8,16.6,28.86,North,360,2.3,2.3,87,0.00,CLR,,0.00,WeatherDisplay:10.37,2013-01-15 05:54:00,
2013-01-14 23:59:00,19.8,16.6,28.86,NNE,22,1.7,1.7,87,0.00,CLR,,0.00,WeatherDisplay:10.37,2013-01-15 05:59:00,